Terminal Aerodrome Forecast
Issued by NWS Kansas City/Pleasant Hill, MO

Home | Current Version | Previous Version | Text Only | Print | Product List | Glossary On
Versions: 1 2 3 4 5 6 7 8 9 10 11 12 13 14 15 16 17
367
FTUS43 KEAX 242320
TAFMCI
TAF
KMCI 242320Z 2500/2524 30007KT P6SM SCT150
     FM251000 VRB05KT P6SM FEW250
     FM251600 33006KT P6SM FEW200=

USA.gov is the U.S. government's official web portal to all federal, state and local government web resources and services.